Meteorological Aerodrome Report (METAR)

METAR

Data at: 2035 UTC 19 Oct 2018

METAR for:NVSC (Sola/Vanua Lava Arpt, --, NV)
Text:NVSC 191800Z 12010KT 9999 SCT018 FEW025CB 26/25 Q1011 RMK RESH
Temperature: 26.0°C ( 79°F)
Dewpoint: 25.0°C ( 77°F) [RH = 94%]
Pressure (altimeter):29.85 inches Hg (1011.0 mb)
Winds:from the ESE (120 degrees) at 12 MPH (10 knots; 5.1 m/s)
Visibility:6 or more sm (10+ km)
Ceiling:at least 12,000 feet AGL
Clouds: scattered clouds at 1800 feet AGL, few clouds at 2500 feet AGL

METAR

Data at: 2035 UTC 19 Oct 2018

METAR for:NVSG (Longana Arpt, --, NV)
Text:No data found

METAR

Data at: 2035 UTC 19 Oct 2018

METAR for:NVSS (Santo/Pekoa Intl, --, NV)
Text:NVSS 192000Z 14009KT 9999 BKN020 27/23 Q1012 RMK NIL
Temperature: 27.0°C ( 81°F)
Dewpoint: 23.0°C ( 73°F) [RH = 79%]
Pressure (altimeter):29.88 inches Hg (1012.0 mb)
Winds:from the SE (140 degrees) at 10 MPH (9 knots; 4.6 m/s)
Visibility:6 or more sm (10+ km)
Ceiling:2000 feet AGL
Clouds: broken clouds at 2000 feet AGL

METAR

Data at: 2035 UTC 19 Oct 2018

METAR for:NVSL (Malekula/Lamap, --, NV)
Text:NVSL 191800Z 18004KT 9999 SCT025 24/22 Q1011 RMK NIL
Temperature: 24.0°C ( 75°F)
Dewpoint: 22.0°C ( 72°F) [RH = 89%]
Pressure (altimeter):29.85 inches Hg (1011.0 mb)
Winds:from the S (180 degrees) at 5 MPH (4 knots; 2.1 m/s)
Visibility:6 or more sm (10+ km)
Ceiling:at least 12,000 feet AGL
Clouds: scattered clouds at 2500 feet AGL

METAR

Data at: 2035 UTC 19 Oct 2018

METAR for:NVSP (Norsup Arpt, --, NV)
Text:NVSP 191800Z AUTO 19001KT //// // NCD 23/21 Q1010 RMK NIL
Temperature: 23.0°C ( 73°F)
Dewpoint: 21.0°C ( 70°F) [RH = 89%]
Pressure (altimeter):29.82 inches Hg (1010.0 mb)
Winds:from the S (190 degrees) at 1 MPH (1 knots; 0.5 m/s)
Ceiling:at least 12,000 feet AGL
Clouds:sky clear below 12,000 feet AGL

METAR

Data at: 2035 UTC 19 Oct 2018

METAR for:NVVV (Efate/Bauerfield Int, --, NV)
Text:NVVV 192000Z 09006KT 9999 SCT020 BKN120 25/24 Q1013 RMK NIL
Temperature: 25.0°C ( 77°F)
Dewpoint: 24.0°C ( 75°F) [RH = 94%]
Pressure (altimeter):29.91 inches Hg (1013.0 mb)
Winds:from the E (90 degrees) at 7 MPH (6 knots; 3.1 m/s)
Visibility:6 or more sm (10+ km)
Ceiling:12000 feet AGL
Clouds: scattered clouds at 2000 feet AGL, broken clouds at 12000 feet AGL

METAR

Data at: 2035 UTC 19 Oct 2018

METAR for:NVVW (Tanna Arpt, --, NV)
Text:NVVW 192000Z AUTO 10005KT //// // NCD 27/22 Q1014 RMK NIL
Temperature: 27.0°C ( 81°F)
Dewpoint: 22.0°C ( 72°F) [RH = 74%]
Pressure (altimeter):29.94 inches Hg (1014.0 mb)
Winds:from the E (100 degrees) at 6 MPH (5 knots; 2.6 m/s)
Ceiling:at least 12,000 feet AGL
Clouds:sky clear below 12,000 feet AGL

METAR

Data at: 2035 UTC 19 Oct 2018

METAR for:NVVA (Aneityum/Mystery Isl, --, NV)
Text:NVVA 191800Z AUTO 04003KT //// // NCD 23/22 Q1014 RMK NIL
Temperature: 23.0°C ( 73°F)
Dewpoint: 22.0°C ( 72°F) [RH = 94%]
Pressure (altimeter):29.94 inches Hg (1014.0 mb)
Winds:from the NE (40 degrees) at 3 MPH (3 knots; 1.5 m/s)
Ceiling:at least 12,000 feet AGL
Clouds:sky clear below 12,000 feet AGL

METAR

Data at: 2035 UTC 19 Oct 2018

NVVV 192000Z 09006KT 9999 SCT020 BKN120 25/24 Q1013 RMK NIL
NVSC 191800Z 12010KT 9999 SCT018 FEW025CB 26/25 Q1011 RMK RESH
No Data available for NVSG
NVSS 192000Z 14009KT 9999 BKN020 27/23 Q1012 RMK NIL
NVSL 191800Z 18004KT 9999 SCT025 24/22 Q1011 RMK NIL
NVSP 191800Z AUTO 19001KT //// // NCD 23/21 Q1010 RMK NIL
NVVW 192000Z AUTO 10005KT //// // NCD 27/22 Q1014 RMK NIL
NVVA 191800Z AUTO 04003KT //// // NCD 23/22 Q1014 RMK NIL